Time;durP1;ratioP1;P1;durP2;ratioP2;P2;SDS_P1;SDS_P2;PMS_P1;PMS_P2;Temp;Humidity;BMP_temperature;BMP_pressure;BME280_temperature;BME280_humidity;BME280_pressure;Samples;Min_cycle;Max_cycle;Signal;HPM_P1;HPM_P2
2023/04/08 00:02:15;;;;;;;71.97;11.30;;;;;;;3.95;54.98;95871.28;5017801;28;20438;-65
2023/04/08 00:04:40;;;;;;;29.98;9.40;;;;;;;3.48;58.30;95874.28;5019139;28;20053;-65
2023/04/08 00:07:06;;;;;;;46.63;8.95;;;;;;;3.87;56.22;95877.19;5017469;28;20081;-65
2023/04/08 00:09:32;;;;;;;40.00;8.38;;;;;;;4.28;55.11;95872.00;5019162;28;20059;-64
2023/04/08 00:11:57;;;;;;;77.70;8.25;;;;;;;4.57;54.01;95867.81;5019589;28;20040;-64
2023/04/08 00:14:23;;;;;;;61.83;8.25;;;;;;;4.51;53.95;95869.16;5017419;28;20062;-65
2023/04/08 00:16:48;;;;;;;54.45;9.82;;;;;;;4.54;52.96;95862.78;5017863;28;20038;-65
2023/04/08 00:19:13;;;;;;;47.15;9.50;;;;;;;4.70;52.48;95864.94;5019096;28;20040;-65
2023/04/08 00:21:39;;;;;;;44.20;8.45;;;;;;;4.73;52.96;95864.63;5019162;28;20038;-64
2023/04/08 00:24:05;;;;;;;37.35;8.73;;;;;;;4.67;52.78;95871.31;5019317;28;20029;-65
2023/04/08 00:26:31;;;;;;;51.10;8.13;;;;;;;5.12;51.11;95873.63;5019179;28;20087;-64
2023/04/08 00:28:56;;;;;;;84.53;7.15;;;;;;;5.24;51.48;95871.72;5019253;28;20121;-64
2023/04/08 00:31:22;;;;;;;44.65;6.75;;;;;;;5.31;51.14;95872.84;5019059;28;20040;-65
2023/04/08 00:33:47;;;;;;;44.65;8.45;;;;;;;5.22;50.40;95875.34;5019325;28;20037;-64
2023/04/08 00:36:13;;;;;;;118.00;7.38;;;;;;;5.03;52.32;95880.56;5019324;28;20022;-65
2023/04/08 00:38:38;;;;;;;37.22;6.72;;;;;;;5.30;50.54;95881.69;5019104;28;20038;-64
2023/04/08 00:41:04;;;;;;;32.90;7.40;;;;;;;5.21;51.42;95881.56;5017641;28;20446;-64
2023/04/08 00:43:29;;;;;;;70.28;7.38;;;;;;;5.08;51.04;95875.72;5018936;28;20029;-65
2023/04/08 00:45:55;;;;;;;80.03;7.45;;;;;;;4.97;51.93;95869.56;5017370;28;20336;-65
2023/04/08 00:48:20;;;;;;;83.70;7.18;;;;;;;4.90;51.52;95873.69;5014966;28;20390;-65
2023/04/08 00:50:46;;;;;;;97.65;7.43;;;;;;;4.74;52.44;95876.03;5018508;28;20026;-65
2023/04/08 00:53:17;;;;;;;95.30;8.02;;;;;;;4.76;51.69;95884.66;4998763;28;20029;-65
2023/04/08 00:55:42;;;;;;;29.90;7.25;;;;;;;4.76;52.32;95882.84;5031311;28;20044;-64
2023/04/08 00:58:08;;;;;;;129.75;7.68;;;;;;;4.57;53.15;95886.25;5017492;28;20041;-64
2023/04/08 01:00:33;;;;;;;22.33;5.63;;;;;;;4.52;53.36;95891.09;5022338;28;20392;-71
2023/04/08 01:03:10;;;;;;;20.05;6.78;;;;;;;4.47;53.99;95888.03;5036290;22;20034;-65
2023/04/08 01:05:42;;;;;;;123.18;8.27;;;;;;;4.62;52.99;95891.97;5021984;28;20087;-64
2023/04/08 01:08:11;;;;;;;148.65;9.68;;;;;;;3.70;55.51;95893.59;5022193;28;20021;-64
2023/04/08 01:10:37;;;;;;;62.08;8.02;;;;;;;4.29;54.34;95892.09;5018850;28;20088;-65
2023/04/08 01:13:08;;;;;;;125.20;8.60;;;;;;;4.54;53.66;95890.00;5002851;28;20504;-64
2023/04/08 01:15:35;;;;;;;36.35;8.07;;;;;;;4.24;53.46;95891.66;5003681;28;20013;-64
2023/04/08 01:18:02;;;;;;;24.23;8.48;;;;;;;4.38;52.49;95882.56;5019018;28;20603;-64
2023/04/08 01:20:27;;;;;;;95.03;9.77;;;;;;;4.03;54.10;95889.06;5004176;28;20540;-64
2023/04/08 01:23:02;;;;;;;26.10;9.15;;;;;;;3.73;55.54;95894.16;5020262;28;20074;-64
2023/04/08 01:25:37;;;;;;;24.70;7.78;;;;;;;4.14;53.90;95883.72;5020504;28;20110;-64
2023/04/08 01:28:15;;;;;;;31.85;8.65;;;;;;;4.21;54.10;95893.75;5021977;28;20035;-64
2023/04/08 01:30:41;;;;;;;22.92;9.20;;;;;;;3.87;54.37;95895.63;5020952;28;20075;-64
2023/04/08 01:33:06;;;;;;;20.85;9.10;;;;;;;3.40;55.83;95898.56;5021893;28;20050;-64
2023/04/08 01:35:32;;;;;;;77.85;10.15;;;;;;;4.09;54.02;95891.19;5021058;28;20026;-64
2023/04/08 01:37:58;;;;;;;46.08;10.80;;;;;;;4.26;53.37;95883.63;5021692;28;20092;-64
2023/04/08 01:40:23;;;;;;;115.30;10.60;;;;;;;3.81;55.69;95898.75;5037550;28;20087;-64
2023/04/08 01:42:49;;;;;;;53.08;11.48;;;;;;;3.59;55.19;95897.94;5020811;28;20073;-64
2023/04/08 01:45:15;;;;;;;62.65;11.18;;;;;;;3.75;55.68;95894.88;5020710;28;20116;-65
2023/04/08 01:47:40;;;;;;;53.50;10.63;;;;;;;4.18;53.47;95895.66;5020812;28;20036;-64
2023/04/08 01:50:06;;;;;;;19.23;7.63;;;;;;;4.27;54.38;95886.16;5021972;28;20060;-64
2023/04/08 01:52:33;;;;;;;70.90;10.35;;;;;;;4.42;52.65;95886.63;5020810;28;20072;-64
2023/04/08 01:54:59;;;;;;;38.45;6.90;;;;;;;4.03;54.45;95884.63;5020299;28;20064;-64
2023/04/08 01:57:26;;;;;;;127.75;11.10;;;;;;;4.33;52.25;95882.16;5020132;28;20083;-64
2023/04/08 01:59:52;;;;;;;36.97;10.70;;;;;;;4.38;53.01;95887.00;5004413;28;20539;-64
2023/04/08 02:02:20;;;;;;;124.95;10.65;;;;;;;4.49;52.02;95894.00;5021160;28;20041;-64
2023/04/08 02:04:46;;;;;;;124.45;9.00;;;;;;;3.90;55.05;95894.53;5020606;28;20369;-64
2023/04/08 02:07:11;;;;;;;16.02;8.40;;;;;;;3.97;54.35;95889.56;5020345;28;20372;-64
2023/04/08 02:09:36;;;;;;;108.15;10.73;;;;;;;4.30;52.81;95880.63;5021059;28;20147;-64
2023/04/08 02:12:02;;;;;;;31.35;10.68;;;;;;;4.09;53.18;95887.72;5020417;28;20036;-64
2023/04/08 02:14:28;;;;;;;21.27;9.30;;;;;;;3.89;54.18;95891.06;5020678;28;20070;-64
2023/04/08 02:17:14;;;;;;;33.97;9.25;;;;;;;4.05;53.71;95887.97;5020309;28;20447;-64
2023/04/08 02:19:48;;;;;;;97.53;10.60;;;;;;;3.74;55.62;95895.81;4980233;28;20071;-64
2023/04/08 02:22:37;;;;;;;72.65;10.00;;;;;;;3.41;56.09;95898.44;4986873;28;20102;-64
2023/04/08 02:25:03;;;;;;;32.90;9.00;;;;;;;3.88;54.67;95892.03;5018656;28;20056;-64
2023/04/08 02:27:29;;;;;;;264.75;12.57;;;;;;;3.54;55.34;95898.31;5019724;28;20503;-64
2023/04/08 02:29:54;;;;;;;121.78;11.48;;;;;;;3.28;56.67;95901.28;5021543;28;20805;-64
2023/04/08 02:32:20;;;;;;;74.75;10.13;;;;;;;4.00;55.24;95892.78;5003140;28;20048;-65
2023/04/08 02:34:45;;;;;;;25.90;8.98;;;;;;;3.79;55.36;95892.81;5019681;28;20076;-65
2023/04/08 02:37:10;;;;;;;111.68;11.40;;;;;;;3.65;55.69;95899.22;5019432;28;20425;-64
2023/04/08 02:39:36;;;;;;;167.70;12.43;;;;;;;3.47;55.69;95910.28;5018711;28;20065;-64
2023/04/08 02:42:02;;;;;;;223.68;12.95;;;;;;;2.97;57.00;95897.63;5019097;28;20079;-64
2023/04/08 02:44:28;;;;;;;48.33;9.27;;;;;;;3.13;56.99;95898.06;5003560;28;20050;-64
2023/04/08 02:46:53;;;;;;;137.35;11.43;;;;;;;2.67;58.76;95897.34;5020792;28;20141;-64
2023/04/08 02:49:19;;;;;;;196.38;11.77;;;;;;;3.38;56.06;95893.44;5020896;28;20063;-64
2023/04/08 02:51:44;;;;;;;57.25;9.77;;;;;;;3.41;56.87;95905.53;5020999;28;20419;-64
2023/04/08 02:54:10;;;;;;;86.05;10.13;;;;;;;3.88;54.42;95897.28;5020905;28;20091;-66
2023/04/08 02:56:35;;;;;;;79.28;10.10;;;;;;;3.79;54.02;95898.06;5020344;28;20029;-66
2023/04/08 02:59:00;;;;;;;174.63;10.77;;;;;;;4.15;52.72;95893.28;5019215;28;20041;-66
2023/04/08 03:01:26;;;;;;;55.10;9.32;;;;;;;4.23;53.23;95899.72;5018850;28;20083;-66
2023/04/08 03:03:51;;;;;;;131.30;9.95;;;;;;;4.42;53.22;95893.72;5020472;28;20092;-66
2023/04/08 03:06:17;;;;;;;110.05;9.95;;;;;;;4.43;51.54;95890.91;5019461;28;20072;-66
2023/04/08 03:08:42;;;;;;;134.40;10.43;;;;;;;4.36;52.00;95899.50;5019428;28;20036;-66
2023/04/08 03:11:08;;;;;;;362.92;13.95;;;;;;;3.30;54.92;95904.59;5020090;28;20075;-66
2023/04/08 03:13:34;;;;;;;460.48;14.70;;;;;;;2.73;56.99;95909.16;5020298;28;20425;-67
2023/04/08 03:16:00;;;;;;;240.65;12.50;;;;;;;2.10;59.97;95913.94;5018729;28;20037;-66
2023/04/08 03:18:25;;;;;;;334.80;13.77;;;;;;;3.21;55.77;95909.78;5018847;28;20069;-66
2023/04/08 03:20:50;;;;;;;380.63;13.43;;;;;;;3.35;55.18;95906.84;5019555;28;20054;-66
2023/04/08 03:23:16;;;;;;;521.08;17.17;;;;;;;3.09;55.66;95909.81;5019892;28;20561;-66
2023/04/08 03:25:41;;;;;;;189.85;9.93;;;;;;;3.90;53.16;95916.44;5019747;28;20056;-66
2023/04/08 03:28:07;;;;;;;25.58;7.80;;;;;;;3.93;53.32;95910.94;5020589;28;20565;-66
2023/04/08 03:30:32;;;;;;;29.65;8.65;;;;;;;3.80;52.83;95911.13;5019774;28;20544;-66
2023/04/08 03:32:57;;;;;;;122.88;8.65;;;;;;;4.01;52.77;95918.16;5019729;28;20033;-66
2023/04/08 03:35:23;;;;;;;129.52;9.43;;;;;;;4.09;51.50;95921.97;5020402;28;20605;-66
2023/04/08 03:37:48;;;;;;;91.75;9.35;;;;;;;3.91;52.71;95914.66;5020021;28;20084;-66
2023/04/08 03:40:14;;;;;;;400.48;13.73;;;;;;;3.49;53.73;95918.06;5020395;28;20408;-66
2023/04/08 03:42:39;;;;;;;44.17;7.72;;;;;;;3.72;53.50;95907.44;5020005;28;20037;-66
2023/04/08 03:45:05;;;;;;;107.07;8.88;;;;;;;4.12;52.34;95908.53;5019156;28;20033;-66
2023/04/08 03:47:31;;;;;;;152.75;9.63;;;;;;;3.94;53.46;95917.84;5020250;28;20043;-66
2023/04/08 03:49:56;;;;;;;92.65;8.65;;;;;;;3.93;52.05;95920.63;5019247;28;20506;-66
2023/04/08 03:52:23;;;;;;;61.85;8.82;;;;;;;4.33;51.49;95922.50;5020226;28;20029;-66
2023/04/08 03:54:48;;;;;;;420.42;13.35;;;;;;;3.39;53.45;95918.81;5019137;28;20049;-66
2023/04/08 03:57:13;;;;;;;101.35;9.23;;;;;;;3.28;54.18;95921.47;5018483;28;20064;-66
2023/04/08 03:59:39;;;;;;;192.63;10.65;;;;;;;2.68;56.47;95925.28;5019866;28;20048;-66
2023/04/08 04:02:05;;;;;;;192.50;10.80;;;;;;;3.17;54.68;95925.81;5017570;28;20516;-66
2023/04/08 04:04:31;;;;;;;158.35;10.10;;;;;;;3.56;54.61;95913.97;5019295;28;20065;-66
2023/04/08 04:06:56;;;;;;;35.45;8.30;;;;;;;3.97;52.82;95913.28;5019304;28;20164;-66
2023/04/08 04:09:21;;;;;;;158.07;9.68;;;;;;;3.53;52.45;95920.34;5019211;28;20090;-66
2023/04/08 04:11:47;;;;;;;163.65;11.00;;;;;;;3.64;52.78;95916.00;5019944;28;20045;-66
2023/04/08 04:14:12;;;;;;;106.63;10.00;;;;;;;3.54;52.67;95918.56;5017988;28;20906;-66
2023/04/08 04:16:38;;;;;;;101.05;9.82;;;;;;;3.12;54.00;95920.09;5018923;28;20059;-67
2023/04/08 04:19:03;;;;;;;24.08;8.32;;;;;;;3.22;54.05;95916.69;5019451;28;20030;-66
2023/04/08 04:21:28;;;;;;;127.13;11.07;;;;;;;2.74;54.81;95913.44;5019278;28;20087;-66
2023/04/08 04:23:54;;;;;;;217.30;11.50;;;;;;;3.04;53.42;95919.88;5019661;28;20334;-66
2023/04/08 04:26:19;;;;;;;42.65;8.05;;;;;;;3.21;53.17;95922.94;5019396;28;20610;-66
2023/04/08 04:28:45;;;;;;;103.95;9.40;;;;;;;3.74;52.13;95918.69;5018395;28;20095;-67
2023/04/08 04:31:20;;;;;;;46.60;8.65;;;;;;;3.42;52.26;95923.81;5019340;28;20111;-67
2023/04/08 04:33:46;;;;;;;97.15;9.68;;;;;;;3.00;53.13;95915.81;5020966;28;20217;-66
2023/04/08 04:36:12;;;;;;;104.13;9.85;;;;;;;3.09;52.83;95925.59;5023549;28;20453;-66
2023/04/08 04:38:37;;;;;;;107.43;9.77;;;;;;;2.64;54.87;95924.72;5022026;28;20087;-66
2023/04/08 04:41:03;;;;;;;96.72;10.20;;;;;;;2.55;55.48;95921.97;5023170;28;20041;-66
2023/04/08 04:43:28;;;;;;;78.45;9.85;;;;;;;2.75;52.84;95920.38;5023306;28;20114;-66
2023/04/08 04:45:54;;;;;;;95.60;9.85;;;;;;;2.81;54.17;95925.16;5023266;28;20067;-66
2023/04/08 04:48:19;;;;;;;23.83;8.38;;;;;;;3.10;53.17;95924.63;5023370;28;20044;-66
2023/04/08 04:50:53;;;;;;;90.40;11.45;;;;;;;2.46;53.13;95926.13;5023266;28;20304;-66
2023/04/08 04:53:19;;;;;;;43.65;8.25;;;;;;;2.70;54.55;95922.53;5023168;28;20153;-66
2023/04/08 04:55:44;;;;;;;61.30;8.73;;;;;;;3.02;52.74;95932.28;5023547;28;20056;-66
2023/04/08 04:58:10;;;;;;;27.83;8.23;;;;;;;3.11;51.74;95930.72;5022641;28;20618;-66
2023/04/08 05:00:35;;;;;;;66.22;8.77;;;;;;;2.87;53.22;95937.84;5023273;28;20637;-66
2023/04/08 05:03:01;;;;;;;36.17;8.32;;;;;;;2.83;53.87;95933.78;5022274;28;20333;-66
2023/04/08 05:05:26;;;;;;;37.97;8.20;;;;;;;2.89;52.92;95935.91;5021622;28;20078;-66
2023/04/08 05:07:52;;;;;;;155.52;10.18;;;;;;;2.38;53.66;95937.22;5022977;28;20103;-67
2023/04/08 05:10:18;;;;;;;97.13;10.02;;;;;;;2.65;53.21;95931.63;5022155;28;20123;-66
2023/04/08 05:12:43;;;;;;;81.10;9.05;;;;;;;2.93;53.33;95940.94;5022778;28;20053;-66
2023/04/08 05:15:09;;;;;;;69.03;8.43;;;;;;;3.08;52.48;95944.13;5022506;28;20065;-67
2023/04/08 05:17:34;;;;;;;106.95;9.35;;;;;;;2.78;52.22;95936.75;5022160;28;20174;-66
2023/04/08 05:20:00;;;;;;;84.28;9.40;;;;;;;2.93;53.50;95939.16;5023490;28;20072;-66
2023/04/08 05:22:25;;;;;;;39.65;8.23;;;;;;;2.65;53.66;95942.16;5022524;28;20340;-66
2023/04/08 05:24:51;;;;;;;74.47;8.90;;;;;;;2.44;54.61;95946.44;5022827;28;20043;-66
2023/04/08 05:27:16;;;;;;;37.83;8.23;;;;;;;2.59;53.99;95947.88;5022133;28;20065;-66
2023/04/08 05:29:41;;;;;;;21.17;8.13;;;;;;;2.23;53.99;95953.25;5022468;28;20419;-66
2023/04/08 05:32:07;;;;;;;106.90;9.32;;;;;;;2.36;55.30;95954.94;5022610;28;20049;-66
2023/04/08 05:34:32;;;;;;;228.55;11.50;;;;;;;2.27;54.52;95953.84;5022379;28;20568;-66
2023/04/08 05:36:58;;;;;;;23.85;7.25;;;;;;;1.71;56.13;95958.81;5022556;28;20123;-66
2023/04/08 05:39:23;;;;;;;44.25;8.38;;;;;;;1.71;56.13;95950.13;5022595;28;20063;-66
2023/04/08 05:41:48;;;;;;;34.40;7.18;;;;;;;1.29;57.52;95948.72;5022181;28;20090;-66
2023/04/08 05:44:14;;;;;;;18.38;8.20;;;;;;;0.84;58.84;95962.41;5021662;28;20385;-66
2023/04/08 05:46:39;;;;;;;21.00;9.20;;;;;;;0.96;58.78;95965.94;5021870;28;20188;-66
2023/04/08 05:49:05;;;;;;;68.70;9.95;;;;;;;1.43;57.84;95962.63;5021787;28;20055;-66
2023/04/08 05:51:30;;;;;;;77.63;9.18;;;;;;;1.35;57.80;95961.41;5020968;28;20426;-66
2023/04/08 05:53:56;;;;;;;26.50;9.15;;;;;;;1.13;57.91;95963.91;5021836;28;20112;-66
2023/04/08 05:56:21;;;;;;;17.00;9.32;;;;;;;1.20;57.87;95963.34;5021893;28;20537;-66
2023/04/08 05:58:47;;;;;;;23.77;9.23;;;;;;;1.33;58.13;95971.16;5021815;28;20093;-66
2023/04/08 06:01:12;;;;;;;68.93;9.85;;;;;;;1.44;57.92;95978.28;5020797;28;20056;-66
2023/04/08 06:03:38;;;;;;;14.00;9.32;;;;;;;1.85;56.89;95978.81;5022004;28;20094;-64
2023/04/08 06:06:04;;;;;;;24.75;7.97;;;;;;;2.01;56.92;95972.44;5020692;28;20574;-64
2023/04/08 06:08:29;;;;;;;20.52;9.70;;;;;;;1.72;57.08;95971.03;5020532;28;20144;-67
2023/04/08 06:10:54;;;;;;;26.45;9.27;;;;;;;1.50;58.17;95979.59;5020937;28;20067;-66
2023/04/08 06:13:20;;;;;;;15.05;9.30;;;;;;;1.60;57.74;95975.38;5021739;28;20443;-66
2023/04/08 06:15:47;;;;;;;16.50;8.57;;;;;;;1.29;58.56;95974.13;5019733;28;20056;-66
2023/04/08 06:18:14;;;;;;;14.05;8.68;;;;;;;1.11;59.82;95977.13;5021393;28;20089;-66
2023/04/08 06:20:40;;;;;;;13.68;9.40;;;;;;;1.29;59.15;95971.50;5021228;28;20386;-66
2023/04/08 06:23:05;;;;;;;13.57;9.45;;;;;;;1.36;59.53;95977.97;5021310;28;20783;-66
2023/04/08 06:25:31;;;;;;;12.15;8.35;;;;;;;1.04;60.64;95981.97;5020919;28;20093;-67
2023/04/08 06:27:56;;;;;;;11.73;7.70;;;;;;;1.02;60.24;95985.66;5021697;28;20065;-66
2023/04/08 06:30:22;;;;;;;12.60;7.18;;;;;;;0.84;60.89;95991.22;5020889;28;20086;-66
2023/04/08 06:32:47;;;;;;;11.00;6.72;;;;;;;0.65;62.14;95999.56;5021618;28;20055;-66
2023/04/08 06:35:13;;;;;;;10.98;6.22;;;;;;;0.32;63.13;96005.22;5020714;28;20505;-66
2023/04/08 06:37:38;;;;;;;8.77;6.78;;;;;;;-0.09;64.90;95998.34;5021076;28;20107;-66
2023/04/08 06:40:07;;;;;;;11.57;6.75;;;;;;;-0.09;65.37;95999.22;5021362;28;20066;-67
2023/04/08 06:42:32;;;;;;;13.32;8.38;;;;;;;-0.05;65.74;95995.44;5020944;28;20089;-66
2023/04/08 06:44:58;;;;;;;15.02;9.95;;;;;;;0.03;65.55;96000.16;5021027;28;20049;-66
2023/04/08 06:47:23;;;;;;;11.95;7.60;;;;;;;0.18;64.29;96014.00;5020536;28;20099;-66
2023/04/08 06:49:49;;;;;;;10.52;6.70;;;;;;;-0.14;64.91;96010.91;5020920;28;20084;-67
2023/04/08 06:52:14;;;;;;;15.82;9.48;;;;;;;0.40;64.34;96007.31;5019646;28;20078;-66
2023/04/08 06:54:40;;;;;;;13.05;9.15;;;;;;;0.53;63.74;96015.19;5020417;28;20076;-66
2023/04/08 06:57:05;;;;;;;15.10;8.90;;;;;;;0.64;63.48;96017.06;5018587;28;20575;-66
2023/04/08 06:59:31;;;;;;;14.15;8.48;;;;;;;0.58;63.27;96023.56;5020949;28;20428;-66
2023/04/08 07:01:56;;;;;;;12.85;8.25;;;;;;;0.74;63.00;96027.75;5017736;28;20102;-66
2023/04/08 07:04:22;;;;;;;12.35;8.68;;;;;;;0.98;62.62;96019.94;5020499;28;20480;-66
2023/04/08 07:06:47;;;;;;;15.45;9.90;;;;;;;1.12;62.23;96026.00;5019578;28;20297;-66
2023/04/08 07:09:12;;;;;;;16.10;10.45;;;;;;;1.47;61.49;96020.00;5020083;28;20064;-66
2023/04/08 07:11:38;;;;;;;16.90;11.93;;;;;;;1.70;60.44;96022.78;5020732;28;20049;-67
2023/04/08 07:14:03;;;;;;;16.13;10.95;;;;;;;2.06;59.89;96025.44;5019874;28;20488;-66
2023/04/08 07:16:31;;;;;;;17.50;11.40;;;;;;;2.12;59.48;96022.34;5018992;28;20057;-66
2023/04/08 07:18:57;;;;;;;14.40;10.25;;;;;;;2.71;57.05;96034.63;5019765;28;20414;-66
2023/04/08 07:21:23;;;;;;;15.93;10.90;;;;;;;3.03;55.82;96034.78;5020276;28;20074;-66
2023/04/08 07:23:48;;;;;;;15.95;10.55;;;;;;;3.40;55.31;96031.03;5020502;28;20052;-66
2023/04/08 07:26:13;;;;;;;15.57;10.82;;;;;;;3.40;55.19;96033.66;5020323;28;20790;-66
2023/04/08 07:28:39;;;;;;;14.80;10.73;;;;;;;3.32;55.10;96027.31;5020147;28;20077;-66
2023/04/08 07:31:12;;;;;;;14.45;9.27;;;;;;;3.17;55.45;96036.31;5020451;28;20077;-66
2023/04/08 07:33:37;;;;;;;13.82;9.18;;;;;;;3.11;55.72;96028.06;5017697;28;20101;-66
2023/04/08 07:36:03;;;;;;;14.02;9.95;;;;;;;3.22;55.17;96043.00;5020255;28;20058;-65
2023/04/08 07:38:28;;;;;;;14.40;9.75;;;;;;;3.62;53.98;96039.88;5019457;28;20078;-66
2023/04/08 07:40:54;;;;;;;13.10;9.65;;;;;;;4.04;53.01;96043.56;5017890;28;20050;-66
2023/04/08 07:43:19;;;;;;;13.80;10.20;;;;;;;3.99;53.04;96051.00;5020240;28;20296;-66
2023/04/08 07:45:45;;;;;;;16.10;10.80;;;;;;;4.11;53.56;96049.19;5017659;28;20079;-66
2023/04/08 07:48:10;;;;;;;12.80;9.65;;;;;;;3.93;53.02;96054.97;5018977;28;20047;-66
2023/04/08 07:50:36;;;;;;;13.38;9.20;;;;;;;4.09;52.50;96053.72;5018405;28;20070;-66
2023/04/08 07:53:02;;;;;;;12.00;8.95;;;;;;;4.43;51.17;96056.19;5018268;28;20222;-66
2023/04/08 07:55:27;;;;;;;13.65;9.38;;;;;;;4.85;49.89;96055.31;5017899;28;20370;-66
2023/04/08 07:57:53;;;;;;;11.55;9.02;;;;;;;4.70;51.03;96060.94;5016094;28;20122;-66
2023/04/08 08:00:20;;;;;;;12.40;8.95;;;;;;;5.21;49.23;96057.63;5018868;28;20060;-66
2023/04/08 08:02:47;;;;;;;14.10;11.20;;;;;;;5.47;48.12;96052.69;5018860;28;20085;-66
2023/04/08 08:05:12;;;;;;;12.60;8.50;;;;;;;5.69;47.93;96053.44;5020669;28;20406;-66
2023/04/08 08:07:37;;;;;;;12.35;9.68;;;;;;;5.69;48.64;96056.09;5020725;28;20059;-66
2023/04/08 08:10:03;;;;;;;12.70;8.93;;;;;;;5.68;48.13;96058.84;5023126;28;20060;-66
2023/04/08 08:12:29;;;;;;;14.32;10.23;;;;;;;5.71;48.88;96062.06;5024191;28;20040;-66
2023/04/08 08:14:57;;;;;;;13.95;9.70;;;;;;;5.41;49.34;96058.50;5023777;28;20041;-66
2023/04/08 08:17:23;;;;;;;12.25;9.20;;;;;;;5.59;48.86;96060.50;5022370;28;20079;-66
2023/04/08 08:19:49;;;;;;;13.18;9.40;;;;;;;5.60;49.36;96070.94;5023518;28;20380;-66
2023/04/08 08:22:14;;;;;;;13.85;10.27;;;;;;;5.73;49.33;96068.03;5023283;28;20170;-66
2023/04/08 08:24:40;;;;;;;13.70;10.15;;;;;;;5.79;49.72;96071.09;5023563;28;20501;-67
2023/04/08 08:27:05;;;;;;;15.85;10.40;;;;;;;5.72;49.55;96071.63;5023299;28;20064;-66
2023/04/08 08:29:31;;;;;;;14.32;10.50;;;;;;;6.09;48.17;96064.06;5023540;28;20032;-66
2023/04/08 08:32:05;;;;;;;12.90;9.18;;;;;;;5.30;49.29;96074.44;5021784;28;20029;-66
2023/04/08 08:34:30;;;;;;;12.70;9.32;;;;;;;4.87;50.34;96082.44;5020269;28;20063;-66
2023/04/08 08:36:56;;;;;;;14.32;9.30;;;;;;;4.67;50.38;96084.97;5023413;28;20042;-68
2023/04/08 08:39:21;;;;;;;13.13;9.75;;;;;;;4.47;52.00;96093.69;5023422;28;20127;-66
2023/04/08 08:41:47;;;;;;;12.50;8.68;;;;;;;4.18;52.96;96093.34;5021867;28;20634;-66
2023/04/08 08:44:12;;;;;;;14.73;11.35;;;;;;;4.39;52.92;96096.97;5021176;28;20040;-66
2023/04/08 08:46:44;;;;;;;14.02;9.95;;;;;;;4.09;52.84;96093.25;5021502;28;20455;-66
2023/04/08 08:49:10;;;;;;;13.60;10.30;;;;;;;4.66;51.74;96099.09;5023316;28;20492;-66
2023/04/08 08:51:36;;;;;;;13.93;9.70;;;;;;;5.01;50.61;96091.81;5023920;28;20487;-64
2023/04/08 08:54:02;;;;;;;13.98;9.30;;;;;;;5.30;50.05;96093.75;5005317;28;20045;-65
2023/04/08 08:56:28;;;;;;;13.50;9.60;;;;;;;4.94;50.93;96094.13;5023550;28;20686;-65
2023/04/08 08:58:53;;;;;;;11.88;9.13;;;;;;;4.83;50.83;96095.03;5023137;28;20080;-64
2023/04/08 09:01:36;;;;;;;12.90;9.93;;;;;;;4.83;51.73;96099.50;5021438;28;20083;-64
2023/04/08 09:04:15;;;;;;;14.50;9.40;;;;;;;4.79;51.66;96098.91;5022405;28;20083;-65
2023/04/08 09:06:41;;;;;;;11.15;7.53;;;;;;;4.42;52.10;96109.91;5022502;28;20599;-65
2023/04/08 09:09:09;;;;;;;12.82;8.60;;;;;;;4.42;52.81;96104.63;5021633;28;20043;-64
2023/04/08 09:11:36;;;;;;;12.68;9.07;;;;;;;4.53;53.42;96103.72;5022882;28;20052;-64
2023/04/08 09:14:01;;;;;;;12.10;9.40;;;;;;;4.28;53.07;96106.59;5022517;28;20073;-65
2023/04/08 09:16:29;;;;;;;11.85;8.63;;;;;;;3.95;54.08;96116.31;5022891;28;20511;-64
2023/04/08 09:18:56;;;;;;;11.68;8.88;;;;;;;4.29;53.09;96121.44;5021770;28;20421;-64
2023/04/08 09:21:21;;;;;;;14.65;9.23;;;;;;;4.32;53.49;96118.56;5020782;28;20074;-64
2023/04/08 09:23:48;;;;;;;14.07;9.73;;;;;;;4.45;53.26;96122.81;5022008;28;20505;-64
2023/04/08 09:26:15;;;;;;;13.32;9.50;;;;;;;4.42;53.74;96126.53;5036647;28;20105;-64
2023/04/08 09:28:42;;;;;;;14.95;10.18;;;;;;;4.59;52.45;96126.94;5022892;28;20673;-65
2023/04/08 09:31:19;;;;;;;14.38;10.65;;;;;;;5.01;50.77;96120.84;5022288;28;20469;-64
2023/04/08 09:33:46;;;;;;;12.48;9.95;;;;;;;4.77;50.96;96129.00;5021589;28;20070;-65
2023/04/08 09:36:11;;;;;;;12.88;10.30;;;;;;;5.55;49.52;96127.78;5022809;28;20079;-64
2023/04/08 09:38:37;;;;;;;12.30;9.68;;;;;;;5.92;47.79;96123.72;5021357;28;20104;-65
2023/04/08 09:41:02;;;;;;;13.25;10.13;;;;;;;5.29;49.29;96131.72;5022325;28;20041;-64
2023/04/08 09:43:28;;;;;;;13.13;10.30;;;;;;;5.13;50.26;96134.81;5020936;28;20047;-65
2023/04/08 09:45:53;;;;;;;14.02;9.95;;;;;;;6.11;48.20;96133.47;5020524;28;20137;-64
2023/04/08 09:48:23;;;;;;;14.43;10.73;;;;;;;6.01;48.29;96130.81;5020945;28;20083;-64
2023/04/08 09:50:49;;;;;;;13.38;9.63;;;;;;;5.68;49.24;96135.47;5021038;28;20083;-64
2023/04/08 09:53:47;;;;;;;13.02;9.75;;;;;;;5.65;48.39;96138.38;5021809;28;20318;-64
2023/04/08 09:56:13;;;;;;;12.23;9.27;;;;;;;5.70;48.44;96137.00;5013243;28;20396;-65
2023/04/08 09:58:41;;;;;;;11.05;8.18;;;;;;;5.83;48.06;96130.63;5021785;28;20033;-64
2023/04/08 10:01:07;;;;;;;12.32;9.25;;;;;;;5.79;47.73;96129.22;5020460;28;20258;-64
2023/04/08 10:03:34;;;;;;;12.50;9.50;;;;;;;6.06;47.40;96127.75;5022352;28;20410;-65
2023/04/08 10:06:00;;;;;;;13.73;9.77;;;;;;;5.97;48.01;96130.25;5021032;28;20334;-65
2023/04/08 10:08:26;;;;;;;12.63;9.38;;;;;;;6.18;46.80;96131.94;5021401;28;20312;-64
2023/04/08 10:10:51;;;;;;;12.52;9.73;;;;;;;5.99;47.83;96130.94;5019603;28;20049;-64
2023/04/08 10:13:16;;;;;;;14.88;10.15;;;;;;;6.19;47.24;96122.22;5021796;28;20087;-65
2023/04/08 10:15:43;;;;;;;13.32;9.80;;;;;;;5.52;48.94;96130.69;5020458;28;20419;-65
2023/04/08 10:18:08;;;;;;;12.35;9.27;;;;;;;5.80;48.43;96125.63;5020737;28;20183;-64
2023/04/08 10:20:33;;;;;;;15.57;10.13;;;;;;;6.49;46.42;96123.91;5021922;28;20097;-64
2023/04/08 10:23:09;;;;;;;12.93;10.18;;;;;;;6.83;45.90;96135.06;5020493;28;20061;-71
2023/04/08 10:25:53;;;;;;;12.95;9.88;;;;;;;5.94;47.41;96135.81;5020856;28;20107;-71
2023/04/08 10:28:18;;;;;;;13.32;10.18;;;;;;;6.16;47.86;96130.41;5019895;28;20022;-71
2023/04/08 10:30:44;;;;;;;13.70;10.57;;;;;;;6.74;46.17;96131.44;5021169;28;20068;-72
2023/04/08 10:33:24;;;;;;;13.27;10.55;;;;;;;6.67;45.79;96133.81;5019944;28;20284;-72
2023/04/08 10:35:58;;;;;;;14.52;11.90;;;;;;;5.04;50.65;96144.31;5020287;28;20029;-71
2023/04/08 10:38:24;;;;;;;13.30;11.02;;;;;;;4.69;50.79;96143.69;5021442;28;20060;-71
2023/04/08 10:40:50;;;;;;;12.60;9.35;;;;;;;5.53;48.88;96137.63;5021572;28;20066;-71
2023/04/08 10:43:15;;;;;;;12.40;8.93;;;;;;;5.08;50.42;96139.66;5021386;28;20036;-71
2023/04/08 10:45:41;;;;;;;13.25;11.25;;;;;;;5.73;48.55;96147.31;5003254;28;20045;-72
2023/04/08 10:48:15;;;;;;;13.48;10.48;;;;;;;4.93;49.92;96147.88;5003652;28;20128;-71
2023/04/08 10:50:40;;;;;;;12.93;11.20;;;;;;;5.44;49.27;96144.56;5018618;28;20375;-72
2023/04/08 10:53:06;;;;;;;12.55;11.02;;;;;;;5.50;49.69;96145.84;5019707;28;20059;-71
2023/04/08 10:55:32;;;;;;;12.93;10.65;;;;;;;4.35;52.90;96143.00;5019706;28;20135;-71
2023/04/08 10:58:07;;;;;;;14.82;10.85;;;;;;;5.93;48.55;96133.28;5019404;28;20037;-71
2023/04/08 11:00:39;;;;;;;13.00;10.20;;;;;;;6.68;46.29;96130.19;5018370;28;20700;-71
2023/04/08 11:03:06;;;;;;;12.82;9.52;;;;;;;6.62;46.86;96136.03;5018607;28;20127;-71
2023/04/08 11:05:32;;;;;;;13.30;10.05;;;;;;;6.32;47.17;96143.94;5018977;28;20037;-71
2023/04/08 11:07:58;;;;;;;13.20;10.65;;;;;;;5.67;48.03;96136.41;5003211;28;20366;-71
2023/04/08 11:10:25;;;;;;;11.48;9.30;;;;;;;6.96;46.15;96132.06;5018893;28;20250;-71
2023/04/08 11:12:50;;;;;;;14.10;9.50;;;;;;;7.85;43.21;96129.16;5021004;28;20091;-71
2023/04/08 11:15:15;;;;;;;11.95;9.80;;;;;;;8.37;42.19;96127.69;5002458;28;20501;-71
2023/04/08 11:17:42;;;;;;;11.13;9.18;;;;;;;8.56;42.01;96135.50;5017922;28;20044;-71
2023/04/08 11:20:07;;;;;;;11.20;9.15;;;;;;;8.32;41.99;96136.09;5019167;28;20411;-71
2023/04/08 11:22:33;;;;;;;12.73;9.35;;;;;;;7.31;43.30;96141.19;5002516;28;20095;-72
2023/04/08 11:24:59;;;;;;;11.45;9.68;;;;;;;6.57;45.85;96144.41;5002805;28;20449;-71
2023/04/08 11:27:25;;;;;;;13.93;10.35;;;;;;;7.08;44.53;96140.72;5019002;28;20049;-72